AirNav   Air Wisconsin pilot careers
 
 354 users online  

VT32 Bobby Heliport
Brookline, Vermont, USA

GOING TO BROOKLINE?


FAA INFORMATION EFFECTIVE 09 NOVEMBER 2017

Location

FAA Identifier: VT32
Lat/Long: 42-59-20.2890N / 072-37-41.3300W
42-59.338150N / 072-37.688833W
42.9889692 / -72.6281472
(estimated)
Elevation: 420 ft. / 128 m (estimated)
Variation: 15W (1985)
From city: 3 miles SE of BROOKLINE, VT
Time zone: UTC -5 (UTC -4 during Daylight Saving Time)
Zip code: 05345

Heliport Operations

Heliport use: Private use, PERSONAL USE.
Activation date: 07/1990
Control tower: no
ARTCC: BOSTON CENTER
FSS: BURLINGTON FLIGHT SERVICE STATION
Attendance: UNATNDD
Segmented circle: no

Heliport Communications

WX AWOS-3PT at EEN (17 nm E): 119.025 (603-358-6424)

Nearby radio navigation aids

VOR radial/distance  VOR name  Freq  Var
EENr322/18.8KEENE VORTAC109.4014W
CAMr105/31.4CAMBRIDGE VOR/DME115.0014W
RUTr171/35.2RUTLAND VOR/DME111.0015W
GDMr331/36.6GARDNER VOR/DME110.6014W

 
NDB name  Hdg/Dist  Freq  Var  ID
CLAREMONT222/25.423316WCNH -.-. -. ....

Heliport Services

Runway Information

Helipad H1

Dimensions: 75 x 50 ft. / 23 x 15 m
Surface: turf
Traffic pattern: leftleft

Heliport Ownership and Management from official FAA records

Ownership: Privately-owned
Owner: HERBERT D HOWE
125 WHITE OAK RUN
DARTMOUTH, MA 02747
Phone 508-636-4376
Manager: HERBERT D HOWE
125 WHITE OAK RUN
DARTMOUTH, MA 02747
Phone 508-636-4376

Heliport Operational Statistics

Aircraft based on the field: 1
Helicopters: 1
    

Instrument Procedures

There are no published instrument procedures at VT32.

Some nearby airports with instrument procedures:

4V8 - Deerfield Valley Regional Airport (11 nm W)
KEEN - Dillant-Hopkins Airport (17 nm E)
KVSF - Hartness State Airport (Springfield) (22 nm N)
0B5 - Turners Falls Airport (24 nm S)
KCNH - Claremont Municipal Airport (26 nm NE)
 
Loc | Ops | Rwys | IFR | FBO | Links
Com | Nav | Svcs | Stats | Notes


 
Area around VT32 (Bobby Heliport)
 
Road maps at: MapQuest Bing Google
 
Aerial photo
No photo
 
Sectional chart

 
Airport distance calculator
Flying to Bobby Heliport? Find the distance to fly.

From to VT32

Sunrise and sunset
Times for 25-Nov-2017
 Local
(UTC-5)
 Zulu
(UTC)
Morning civil twilight06:2511:25
Sunrise06:5611:56
Sunset16:1921:19
Evening civil twilight16:5021:50

Current date and time
Zulu (UTC)  25-Nov-2017 08:04:57
Local (UTC-5)  25-Nov-2017 03:04:57
 
METAR
KEEN 
17nm E 
250756Z AUTO 00000KT 10SM CLR M04/M05 A2983 RMK AO2 SLP120 T10391050 FZRANO
KVSF 
22nm N 
250754Z AUTO 00000KT 7SM CLR M03/M04 A2980 RMK AO2 SLP097 T10331044
KDDH 
28nm W 
250754Z AUTO 34005KT 10SM CLR 02/M06 A2977 RMK AO2 SLP084 T00221056
KAQW 
29nm SW 
250752Z AUTO 10008KT 10SM CLR 03/M05 A2980 RMK AO2 SLP097 T00281050
KORE 
30nm SE 
250752Z AUTO 00000KT 10SM CLR M03/M03 A2983 RMK AO2 SLP108 T10331033 TSNO
KAFN 
30nm E 
250752Z AUTO 20005KT 10SM CLR 02/M03 A2981 RMK AO2 SLP105 T00221028 TSNO
TAF
KRUT 
35nm NW 
250544Z 2506/2606 12009KT P6SM FEW250 WS020/23030KT FM251200 16009KT P6SM FEW200 FM251900 21005KT P6SM VCSH OVC080 FM252200 VRB03KT P6SM BKN060 FM260300 27004KT P6SM BKN025
KLEB 
41nm N 
250523Z 2506/2606 VRB03KT P6SM FEW250 WS020/23035KT FM251400 20007KT P6SM SCT120 BKN250 FM252100 VRB03KT P6SM SCT060 BKN080
NOTAMs
Click for the latest NOTAMs
NOTAMs are issued by the DoD/FAA and will open in a separate window not controlled by AirNav.

 

 
 

Would you like to see your business listed on this page?

 If your business provides an interesting product or service to pilots, flight crews, aircraft, or users of the Bobby Heliport, you should consider listing it here.  To start the listing process, click on the button below
 
Add a business
 

Other Pages about Bobby Heliport

Update a link
 
Copyright © AirNav, LLC. All rights reserved. Privacy Policy  Contact